sensor_id;sensor_type;location;lat;lon;timestamp;pressure;altitude;pressure_sealevel;temperature;humidity
15694;BME280;7947;48.834;9.132;2024-01-27T00:01:33;99922.41;;;4.20;75.39
15694;BME280;7947;48.834;9.132;2024-01-27T00:04:36;99921.72;;;4.11;75.65
15694;BME280;7947;48.834;9.132;2024-01-27T00:07:40;99941.38;;;4.17;76.79
15694;BME280;7947;48.834;9.132;2024-01-27T00:10:43;99934.59;;;4.14;76.78
15694;BME280;7947;48.834;9.132;2024-01-27T00:13:47;99934.84;;;3.98;76.88
15694;BME280;7947;48.834;9.132;2024-01-27T00:16:50;99937.19;;;4.08;77.08
15694;BME280;7947;48.834;9.132;2024-01-27T00:19:53;99945.16;;;4.08;76.38
15694;BME280;7947;48.834;9.132;2024-01-27T00:22:57;99934.47;;;4.01;77.27
15694;BME280;7947;48.834;9.132;2024-01-27T00:26:00;99937.50;;;3.98;77.36
15694;BME280;7947;48.834;9.132;2024-01-27T00:29:03;99934.09;;;3.83;77.82
15694;BME280;7947;48.834;9.132;2024-01-27T00:32:05;99942.16;;;3.75;78.46
15694;BME280;7947;48.834;9.132;2024-01-27T00:35:08;99933.16;;;3.76;78.73
15694;BME280;7947;48.834;9.132;2024-01-27T00:38:14;99950.56;;;3.79;79.14
15694;BME280;7947;48.834;9.132;2024-01-27T00:41:17;99952.81;;;3.82;79.97
15694;BME280;7947;48.834;9.132;2024-01-27T00:44:20;99950.69;;;3.92;77.99
15694;BME280;7947;48.834;9.132;2024-01-27T00:47:23;99952.38;;;3.78;78.50
15694;BME280;7947;48.834;9.132;2024-01-27T00:50:26;99945.38;;;3.92;78.10
15694;BME280;7947;48.834;9.132;2024-01-27T00:53:30;99944.94;;;3.88;77.49
15694;BME280;7947;48.834;9.132;2024-01-27T00:56:33;99944.06;;;3.81;77.53
15694;BME280;7947;48.834;9.132;2024-01-27T00:59:36;99947.19;;;3.70;77.41
15694;BME280;7947;48.834;9.132;2024-01-27T01:02:39;99957.44;;;3.58;77.99
15694;BME280;7947;48.834;9.132;2024-01-27T01:05:42;99955.16;;;3.55;79.62
15694;BME280;7947;48.834;9.132;2024-01-27T01:08:47;99959.09;;;3.59;78.35
15694;BME280;7947;48.834;9.132;2024-01-27T01:11:50;99963.75;;;3.57;78.20
15694;BME280;7947;48.834;9.132;2024-01-27T01:14:53;99974.81;;;3.61;78.69
15694;BME280;7947;48.834;9.132;2024-01-27T01:17:56;99966.50;;;3.49;78.91
15694;BME280;7947;48.834;9.132;2024-01-27T01:20:59;99969.78;;;3.37;79.23
15694;BME280;7947;48.834;9.132;2024-01-27T01:24:03;99969.72;;;3.45;79.28
15694;BME280;7947;48.834;9.132;2024-01-27T01:27:06;99972.06;;;3.54;78.36
15694;BME280;7947;48.834;9.132;2024-01-27T01:30:09;99963.94;;;3.41;77.35
15694;BME280;7947;48.834;9.132;2024-01-27T01:33:12;99970.38;;;3.32;78.77
15694;BME280;7947;48.834;9.132;2024-01-27T01:36:15;99969.63;;;3.38;78.10
15694;BME280;7947;48.834;9.132;2024-01-27T01:39:19;99965.03;;;3.47;77.65
15694;BME280;7947;48.834;9.132;2024-01-27T01:42:22;99975.47;;;3.48;77.73
15694;BME280;7947;48.834;9.132;2024-01-27T01:45:26;99984.88;;;3.51;76.32
15694;BME280;7947;48.834;9.132;2024-01-27T01:48:29;99981.16;;;3.45;76.52
15694;BME280;7947;48.834;9.132;2024-01-27T01:51:32;99980.41;;;3.37;77.14
15694;BME280;7947;48.834;9.132;2024-01-27T01:54:37;99989.66;;;3.26;75.99
15694;BME280;7947;48.834;9.132;2024-01-27T01:57:40;99992.47;;;3.10;77.04
15694;BME280;7947;48.834;9.132;2024-01-27T02:00:43;99987.72;;;3.06;78.11
15694;BME280;7947;48.834;9.132;2024-01-27T02:03:52;99991.88;;;3.00;78.32
15694;BME280;7947;48.834;9.132;2024-01-27T02:06:55;99982.88;;;3.09;79.55
15694;BME280;7947;48.834;9.132;2024-01-27T02:09:59;100000.53;;;3.17;79.43
15694;BME280;7947;48.834;9.132;2024-01-27T02:13:03;100001.34;;;3.17;78.96
15694;BME280;7947;48.834;9.132;2024-01-27T02:16:06;100013.25;;;3.21;78.03
15694;BME280;7947;48.834;9.132;2024-01-27T02:19:09;100018.34;;;3.23;77.43
15694;BME280;7947;48.834;9.132;2024-01-27T02:22:12;100027.41;;;3.28;78.25
15694;BME280;7947;48.834;9.132;2024-01-27T02:25:16;100026.00;;;3.18;77.80
15694;BME280;7947;48.834;9.132;2024-01-27T02:28:21;100025.28;;;3.24;77.36
15694;BME280;7947;48.834;9.132;2024-01-27T02:31:25;100023.19;;;3.19;78.01
15694;BME280;7947;48.834;9.132;2024-01-27T02:34:28;100023.53;;;3.16;77.22
15694;BME280;7947;48.834;9.132;2024-01-27T02:37:32;100027.66;;;3.19;77.11
15694;BME280;7947;48.834;9.132;2024-01-27T02:40:37;100028.13;;;3.08;77.25
15694;BME280;7947;48.834;9.132;2024-01-27T02:43:40;100037.59;;;3.02;77.47
15694;BME280;7947;48.834;9.132;2024-01-27T02:46:43;100049.09;;;2.95;77.70
15694;BME280;7947;48.834;9.132;2024-01-27T02:49:46;100045.78;;;2.93;77.47
15694;BME280;7947;48.834;9.132;2024-01-27T02:52:49;100052.81;;;2.86;77.86
15694;BME280;7947;48.834;9.132;2024-01-27T02:55:53;100042.34;;;2.92;78.51
15694;BME280;7947;48.834;9.132;2024-01-27T02:58:56;100050.03;;;3.02;77.18
15694;BME280;7947;48.834;9.132;2024-01-27T03:01:59;100044.53;;;3.03;76.54
15694;BME280;7947;48.834;9.132;2024-01-27T03:05:02;100046.25;;;2.96;75.82
15694;BME280;7947;48.834;9.132;2024-01-27T03:08:05;100045.38;;;2.81;77.39
15694;BME280;7947;48.834;9.132;2024-01-27T03:11:09;100042.22;;;2.86;78.02
15694;BME280;7947;48.834;9.132;2024-01-27T03:14:12;100050.22;;;2.78;77.97
15694;BME280;7947;48.834;9.132;2024-01-27T03:17:15;100049.38;;;2.77;78.43
15694;BME280;7947;48.834;9.132;2024-01-27T03:20:18;100049.69;;;2.82;78.02
15694;BME280;7947;48.834;9.132;2024-01-27T03:23:21;100047.38;;;2.79;78.08
15694;BME280;7947;48.834;9.132;2024-01-27T03:26:25;100042.78;;;2.73;77.07
15694;BME280;7947;48.834;9.132;2024-01-27T03:29:28;100053.94;;;2.68;77.65
15694;BME280;7947;48.834;9.132;2024-01-27T03:32:31;100057.16;;;2.56;78.22
15694;BME280;7947;48.834;9.132;2024-01-27T03:35:34;100065.09;;;2.56;78.04
15694;BME280;7947;48.834;9.132;2024-01-27T03:38:37;100074.94;;;2.47;78.59
15694;BME280;7947;48.834;9.132;2024-01-27T03:41:41;100079.38;;;2.55;79.56
15694;BME280;7947;48.834;9.132;2024-01-27T03:44:44;100080.47;;;2.60;80.39
15694;BME280;7947;48.834;9.132;2024-01-27T03:47:47;100087.59;;;2.60;79.76
15694;BME280;7947;48.834;9.132;2024-01-27T03:50:52;100091.34;;;2.65;79.09
15694;BME280;7947;48.834;9.132;2024-01-27T03:53:55;100094.38;;;2.62;79.55
15694;BME280;7947;48.834;9.132;2024-01-27T03:56:59;100084.25;;;2.66;79.49
15694;BME280;7947;48.834;9.132;2024-01-27T04:00:03;100086.06;;;2.65;78.51
15694;BME280;7947;48.834;9.132;2024-01-27T04:03:06;100089.25;;;2.61;79.25
15694;BME280;7947;48.834;9.132;2024-01-27T04:06:11;100091.59;;;2.56;77.80
15694;BME280;7947;48.834;9.132;2024-01-27T04:09:14;100090.47;;;2.50;79.01
15694;BME280;7947;48.834;9.132;2024-01-27T04:12:18;100091.63;;;2.48;79.50
15694;BME280;7947;48.834;9.132;2024-01-27T04:15:21;100096.59;;;2.51;79.27
15694;BME280;7947;48.834;9.132;2024-01-27T04:18:24;100087.00;;;2.50;79.43
15694;BME280;7947;48.834;9.132;2024-01-27T04:21:27;100090.41;;;2.58;78.27
15694;BME280;7947;48.834;9.132;2024-01-27T04:24:30;100094.38;;;2.62;77.32
15694;BME280;7947;48.834;9.132;2024-01-27T04:27:38;100096.19;;;2.62;77.95
15694;BME280;7947;48.834;9.132;2024-01-27T04:30:41;100095.91;;;2.57;78.19
15694;BME280;7947;48.834;9.132;2024-01-27T04:33:44;100104.06;;;2.47;79.08
15694;BME280;7947;48.834;9.132;2024-01-27T04:36:47;100095.13;;;2.48;79.51
15694;BME280;7947;48.834;9.132;2024-01-27T04:39:49;100107.06;;;2.44;79.47
15694;BME280;7947;48.834;9.132;2024-01-27T04:42:54;100099.28;;;2.43;78.48
15694;BME280;7947;48.834;9.132;2024-01-27T04:45:57;100106.09;;;2.37;78.56
15694;BME280;7947;48.834;9.132;2024-01-27T04:48:59;100117.16;;;2.41;79.23
15694;BME280;7947;48.834;9.132;2024-01-27T04:52:03;100113.41;;;2.35;78.30
15694;BME280;7947;48.834;9.132;2024-01-27T04:55:06;100110.50;;;2.22;78.51
15694;BME280;7947;48.834;9.132;2024-01-27T04:58:10;100118.06;;;2.25;77.64
15694;BME280;7947;48.834;9.132;2024-01-27T05:01:13;100108.16;;;2.19;77.69
15694;BME280;7947;48.834;9.132;2024-01-27T05:04:16;100116.59;;;2.23;78.42
15694;BME280;7947;48.834;9.132;2024-01-27T05:07:19;100117.97;;;2.19;78.57
15694;BME280;7947;48.834;9.132;2024-01-27T05:10:22;100121.22;;;2.21;78.08
15694;BME280;7947;48.834;9.132;2024-01-27T05:13:28;100123.72;;;2.22;77.94
15694;BME280;7947;48.834;9.132;2024-01-27T05:16:31;100123.53;;;2.24;77.44
15694;BME280;7947;48.834;9.132;2024-01-27T05:19:35;100116.50;;;2.08;78.52
15694;BME280;7947;48.834;9.132;2024-01-27T05:22:38;100122.91;;;2.14;78.12
15694;BME280;7947;48.834;9.132;2024-01-27T05:25:40;100120.94;;;2.16;77.63
15694;BME280;7947;48.834;9.132;2024-01-27T05:28:45;100117.66;;;2.06;78.42
15694;BME280;7947;48.834;9.132;2024-01-27T05:31:47;100121.44;;;2.11;78.20
15694;BME280;7947;48.834;9.132;2024-01-27T05:34:51;100107.56;;;2.09;78.04
15694;BME280;7947;48.834;9.132;2024-01-27T05:37:54;100104.78;;;2.03;78.26
15694;BME280;7947;48.834;9.132;2024-01-27T05:40:57;100106.59;;;2.02;78.37
15694;BME280;7947;48.834;9.132;2024-01-27T05:44:04;100108.44;;;1.94;78.13
15694;BME280;7947;48.834;9.132;2024-01-27T05:47:07;100112.44;;;1.90;78.19
15694;BME280;7947;48.834;9.132;2024-01-27T05:50:13;100117.56;;;1.91;78.18
15694;BME280;7947;48.834;9.132;2024-01-27T05:53:15;100114.09;;;1.91;77.70
15694;BME280;7947;48.834;9.132;2024-01-27T05:56:18;100111.25;;;1.92;77.97
15694;BME280;7947;48.834;9.132;2024-01-27T05:59:23;100120.00;;;2.01;77.67
15694;BME280;7947;48.834;9.132;2024-01-27T06:02:26;100119.31;;;2.07;76.89
15694;BME280;7947;48.834;9.132;2024-01-27T06:05:28;100119.16;;;2.00;77.38
15694;BME280;7947;48.834;9.132;2024-01-27T06:08:31;100120.53;;;1.88;78.08
15694;BME280;7947;48.834;9.132;2024-01-27T06:11:34;100118.25;;;1.85;77.20
15694;BME280;7947;48.834;9.132;2024-01-27T06:14:40;100123.25;;;1.72;77.96
15694;BME280;7947;48.834;9.132;2024-01-27T06:17:43;100116.63;;;1.76;77.48
15694;BME280;7947;48.834;9.132;2024-01-27T06:20:46;100122.69;;;1.84;76.33
15694;BME280;7947;48.834;9.132;2024-01-27T06:23:49;100133.59;;;1.90;75.53
15694;BME280;7947;48.834;9.132;2024-01-27T06:26:52;100133.63;;;1.73;76.26
15694;BME280;7947;48.834;9.132;2024-01-27T06:29:56;100136.97;;;1.67;76.91
15694;BME280;7947;48.834;9.132;2024-01-27T06:32:59;100140.63;;;1.58;76.91
15694;BME280;7947;48.834;9.132;2024-01-27T06:36:02;100142.25;;;1.51;77.46
15694;BME280;7947;48.834;9.132;2024-01-27T06:39:05;100152.34;;;1.48;76.76
15694;BME280;7947;48.834;9.132;2024-01-27T06:42:09;100160.28;;;1.48;77.22
15694;BME280;7947;48.834;9.132;2024-01-27T06:45:13;100145.75;;;1.52;76.53
15694;BME280;7947;48.834;9.132;2024-01-27T06:48:16;100151.50;;;1.55;77.45
15694;BME280;7947;48.834;9.132;2024-01-27T06:51:19;100149.53;;;1.65;75.35
15694;BME280;7947;48.834;9.132;2024-01-27T06:54:22;100141.75;;;1.64;75.27
15694;BME280;7947;48.834;9.132;2024-01-27T06:57:25;100153.50;;;1.53;75.86
15694;BME280;7947;48.834;9.132;2024-01-27T07:00:29;100155.47;;;1.59;77.03
15694;BME280;7947;48.834;9.132;2024-01-27T07:03:32;100155.66;;;1.58;76.53
15694;BME280;7947;48.834;9.132;2024-01-27T07:06:35;100158.13;;;1.43;77.14
15694;BME280;7947;48.834;9.132;2024-01-27T07:09:38;100155.84;;;1.48;77.49
15694;BME280;7947;48.834;9.132;2024-01-27T07:12:41;100145.72;;;1.60;76.98
15694;BME280;7947;48.834;9.132;2024-01-27T07:15:45;100153.19;;;1.56;76.79
15694;BME280;7947;48.834;9.132;2024-01-27T07:18:49;100160.09;;;1.49;77.62
15694;BME280;7947;48.834;9.132;2024-01-27T07:21:52;100154.16;;;1.47;78.46
15694;BME280;7947;48.834;9.132;2024-01-27T07:24:55;100162.44;;;1.60;78.37
15694;BME280;7947;48.834;9.132;2024-01-27T07:27:58;100157.81;;;1.62;78.35
15694;BME280;7947;48.834;9.132;2024-01-27T07:31:03;100170.66;;;1.65;79.05
15694;BME280;7947;48.834;9.132;2024-01-27T07:34:05;100154.97;;;1.64;79.32
15694;BME280;7947;48.834;9.132;2024-01-27T07:37:08;100167.06;;;1.66;79.38
15694;BME280;7947;48.834;9.132;2024-01-27T07:40:12;100172.34;;;1.50;80.50
15694;BME280;7947;48.834;9.132;2024-01-27T07:43:14;100163.28;;;1.37;81.85
15694;BME280;7947;48.834;9.132;2024-01-27T07:46:19;100166.53;;;1.55;81.80
15694;BME280;7947;48.834;9.132;2024-01-27T07:49:24;100163.09;;;1.62;82.23
15694;BME280;7947;48.834;9.132;2024-01-27T07:52:27;100160.53;;;1.93;82.40
15694;BME280;7947;48.834;9.132;2024-01-27T07:55:30;100166.78;;;2.00;82.33
15694;BME280;7947;48.834;9.132;2024-01-27T07:58:32;100165.75;;;2.09;81.81
15694;BME280;7947;48.834;9.132;2024-01-27T08:01:37;100170.16;;;2.33;80.76
15694;BME280;7947;48.834;9.132;2024-01-27T08:04:39;100156.84;;;2.49;80.35
15694;BME280;7947;48.834;9.132;2024-01-27T08:07:42;100163.09;;;2.56;80.00
15694;BME280;7947;48.834;9.132;2024-01-27T08:10:45;100156.34;;;2.53;80.57
15694;BME280;7947;48.834;9.132;2024-01-27T08:13:48;100155.97;;;2.56;80.89
15694;BME280;7947;48.834;9.132;2024-01-27T08:16:53;100147.03;;;2.57;80.82
15694;BME280;7947;48.834;9.132;2024-01-27T08:19:59;100158.06;;;2.69;81.05
15694;BME280;7947;48.834;9.132;2024-01-27T08:23:03;100151.34;;;2.81;81.00
15694;BME280;7947;48.834;9.132;2024-01-27T08:26:08;100144.53;;;2.87;80.89
15694;BME280;7947;48.834;9.132;2024-01-27T08:29:11;100150.09;;;3.00;80.82
15694;BME280;7947;48.834;9.132;2024-01-27T08:32:15;100155.94;;;3.10;81.43
15694;BME280;7947;48.834;9.132;2024-01-27T08:35:18;100148.44;;;3.21;81.47
15694;BME280;7947;48.834;9.132;2024-01-27T08:38:21;100146.53;;;3.30;81.05
15694;BME280;7947;48.834;9.132;2024-01-27T08:41:24;100143.63;;;3.39;81.40
15694;BME280;7947;48.834;9.132;2024-01-27T08:44:30;100136.38;;;3.33;81.65
15694;BME280;7947;48.834;9.132;2024-01-27T08:47:34;100143.19;;;3.13;82.71
15694;BME280;7947;48.834;9.132;2024-01-27T08:50:37;100146.19;;;3.10;82.56
15694;BME280;7947;48.834;9.132;2024-01-27T08:53:40;100148.78;;;3.18;84.27
15694;BME280;7947;48.834;9.132;2024-01-27T08:56:44;100143.53;;;3.10;86.09
15694;BME280;7947;48.834;9.132;2024-01-27T08:59:46;100141.94;;;3.24;86.28
15694;BME280;7947;48.834;9.132;2024-01-27T09:02:52;100137.84;;;3.21;86.58
15694;BME280;7947;48.834;9.132;2024-01-27T09:05:55;100146.69;;;3.28;86.13
15694;BME280;7947;48.834;9.132;2024-01-27T09:08:58;100147.81;;;3.34;85.91
15694;BME280;7947;48.834;9.132;2024-01-27T09:12:01;100150.94;;;3.37;86.58
15694;BME280;7947;48.834;9.132;2024-01-27T09:15:05;100142.19;;;3.51;86.00
15694;BME280;7947;48.834;9.132;2024-01-27T09:18:10;100139.91;;;3.63;85.82
15694;BME280;7947;48.834;9.132;2024-01-27T09:21:13;100141.41;;;3.80;86.33
15694;BME280;7947;48.834;9.132;2024-01-27T09:24:22;100153.31;;;3.99;85.12
15694;BME280;7947;48.834;9.132;2024-01-27T09:27:25;100153.94;;;3.86;83.58
15694;BME280;7947;48.834;9.132;2024-01-27T09:30:28;100149.66;;;4.00;85.31
15694;BME280;7947;48.834;9.132;2024-01-27T09:33:35;100147.91;;;4.21;84.74
15694;BME280;7947;48.834;9.132;2024-01-27T09:36:38;100151.75;;;4.33;83.11
15694;BME280;7947;48.834;9.132;2024-01-27T09:39:41;100154.47;;;4.54;82.75
15694;BME280;7947;48.834;9.132;2024-01-27T09:42:51;100157.50;;;4.73;80.95
15694;BME280;7947;48.834;9.132;2024-01-27T09:45:54;100157.50;;;4.87;80.98
15694;BME280;7947;48.834;9.132;2024-01-27T09:49:02;100156.97;;;4.98;80.50
15694;BME280;7947;48.834;9.132;2024-01-27T09:52:06;100163.97;;;4.99;79.51
15694;BME280;7947;48.834;9.132;2024-01-27T09:55:10;100146.88;;;5.08;79.43
15694;BME280;7947;48.834;9.132;2024-01-27T09:58:13;100161.66;;;5.17;78.30
15694;BME280;7947;48.834;9.132;2024-01-27T10:01:17;100168.72;;;6.89;75.92
15694;BME280;7947;48.834;9.132;2024-01-27T10:04:22;100159.31;;;9.93;64.07
15694;BME280;7947;48.834;9.132;2024-01-27T10:07:25;100163.16;;;12.00;52.17
15694;BME280;7947;48.834;9.132;2024-01-27T10:10:28;100153.66;;;13.56;47.48
15694;BME280;7947;48.834;9.132;2024-01-27T10:13:31;100149.56;;;13.87;45.62
15694;BME280;7947;48.834;9.132;2024-01-27T10:16:40;100143.13;;;14.86;43.18
15694;BME280;7947;48.834;9.132;2024-01-27T10:19:44;100145.50;;;15.04;42.99
15694;BME280;7947;48.834;9.132;2024-01-27T10:22:47;100154.25;;;14.68;43.30
15694;BME280;7947;48.834;9.132;2024-01-27T10:25:50;100143.88;;;15.08;42.43
15694;BME280;7947;48.834;9.132;2024-01-27T10:28:57;100149.13;;;15.19;43.00
15694;BME280;7947;48.834;9.132;2024-01-27T10:32:07;100145.50;;;15.62;40.33
15694;BME280;7947;48.834;9.132;2024-01-27T10:35:12;100141.34;;;16.70;38.41
15694;BME280;7947;48.834;9.132;2024-01-27T10:38:15;100139.19;;;16.20;38.87
15694;BME280;7947;48.834;9.132;2024-01-27T10:41:21;100143.53;;;15.84;40.13
15694;BME280;7947;48.834;9.132;2024-01-27T10:44:25;100123.03;;;15.93;39.89
15694;BME280;7947;48.834;9.132;2024-01-27T10:47:30;100110.47;;;15.77;40.18
15694;BME280;7947;48.834;9.132;2024-01-27T10:50:39;100113.41;;;14.86;42.33
15694;BME280;7947;48.834;9.132;2024-01-27T10:53:49;100109.03;;;14.58;42.57
15694;BME280;7947;48.834;9.132;2024-01-27T10:56:56;100109.69;;;14.27;42.49
15694;BME280;7947;48.834;9.132;2024-01-27T11:00:01;100092.59;;;14.21;42.84
15694;BME280;7947;48.834;9.132;2024-01-27T11:03:06;100087.69;;;14.57;41.68
15694;BME280;7947;48.834;9.132;2024-01-27T11:06:11;100082.81;;;14.32;42.59
15694;BME280;7947;48.834;9.132;2024-01-27T11:09:15;100087.66;;;13.75;44.79
15694;BME280;7947;48.834;9.132;2024-01-27T11:12:21;100087.84;;;13.52;45.32
15694;BME280;7947;48.834;9.132;2024-01-27T11:15:25;100081.97;;;13.22;45.55
15694;BME280;7947;48.834;9.132;2024-01-27T11:18:29;100084.94;;;12.01;49.47
15694;BME280;7947;48.834;9.132;2024-01-27T11:21:33;100083.19;;;11.60;51.39
15694;BME280;7947;48.834;9.132;2024-01-27T11:24:37;100079.56;;;11.55;51.90
15694;BME280;7947;48.834;9.132;2024-01-27T11:27:40;100072.78;;;10.88;53.80
15694;BME280;7947;48.834;9.132;2024-01-27T11:30:46;100068.13;;;10.83;53.96
15694;BME280;7947;48.834;9.132;2024-01-27T11:33:50;100077.59;;;10.98;55.03
15694;BME280;7947;48.834;9.132;2024-01-27T11:36:57;100081.63;;;11.18;52.62
15694;BME280;7947;48.834;9.132;2024-01-27T11:40:06;100089.16;;;10.98;52.98
15694;BME280;7947;48.834;9.132;2024-01-27T11:43:11;100077.31;;;11.29;53.13
15694;BME280;7947;48.834;9.132;2024-01-27T11:46:15;100072.56;;;11.77;51.07
15694;BME280;7947;48.834;9.132;2024-01-27T11:49:18;100070.78;;;11.48;51.82
15694;BME280;7947;48.834;9.132;2024-01-27T11:52:23;100069.16;;;11.93;50.43
15694;BME280;7947;48.834;9.132;2024-01-27T11:55:26;100056.84;;;12.20;50.93
15694;BME280;7947;48.834;9.132;2024-01-27T11:58:29;100065.97;;;12.59;48.72
15694;BME280;7947;48.834;9.132;2024-01-27T12:01:32;100063.88;;;12.49;50.38
15694;BME280;7947;48.834;9.132;2024-01-27T12:04:38;100062.38;;;12.70;48.11
15694;BME280;7947;48.834;9.132;2024-01-27T12:07:42;100066.50;;;13.34;46.19
15694;BME280;7947;48.834;9.132;2024-01-27T12:10:45;100064.72;;;13.94;45.16
15694;BME280;7947;48.834;9.132;2024-01-27T12:13:48;100050.41;;;14.54;43.97
15694;BME280;7947;48.834;9.132;2024-01-27T12:16:51;100043.75;;;14.93;43.43
15694;BME280;7947;48.834;9.132;2024-01-27T12:19:54;100039.81;;;15.69;42.10
15694;BME280;7947;48.834;9.132;2024-01-27T12:23:06;100036.00;;;15.65;40.41
15694;BME280;7947;48.834;9.132;2024-01-27T12:26:14;100033.97;;;15.13;41.56
15694;BME280;7947;48.834;9.132;2024-01-27T12:29:19;100028.53;;;14.55;41.84
15694;BME280;7947;48.834;9.132;2024-01-27T12:32:22;100026.00;;;14.43;43.31
15694;BME280;7947;48.834;9.132;2024-01-27T12:35:26;100017.94;;;14.75;42.77
15694;BME280;7947;48.834;9.132;2024-01-27T12:38:32;100014.50;;;15.11;42.94
15694;BME280;7947;48.834;9.132;2024-01-27T12:41:35;100004.28;;;15.23;40.45
15694;BME280;7947;48.834;9.132;2024-01-27T12:44:39;100003.81;;;14.95;41.10
15694;BME280;7947;48.834;9.132;2024-01-27T12:47:42;99999.97;;;15.17;40.47
15694;BME280;7947;48.834;9.132;2024-01-27T12:50:45;99999.41;;;14.57;41.80
15694;BME280;7947;48.834;9.132;2024-01-27T12:53:49;99994.72;;;14.74;40.88
15694;BME280;7947;48.834;9.132;2024-01-27T12:56:51;100010.44;;;14.56;41.06
15694;BME280;7947;48.834;9.132;2024-01-27T12:59:56;100008.25;;;14.09;41.61
15694;BME280;7947;48.834;9.132;2024-01-27T13:02:59;100009.44;;;13.37;41.10
15694;BME280;7947;48.834;9.132;2024-01-27T13:06:02;100010.97;;;13.00;44.59
15694;BME280;7947;48.834;9.132;2024-01-27T13:09:07;100017.00;;;12.74;44.86
15694;BME280;7947;48.834;9.132;2024-01-27T13:12:12;100014.94;;;12.81;44.73
15694;BME280;7947;48.834;9.132;2024-01-27T13:15:15;100023.13;;;13.02;43.90
15694;BME280;7947;48.834;9.132;2024-01-27T13:18:20;100005.97;;;12.92;44.01
15694;BME280;7947;48.834;9.132;2024-01-27T13:21:23;100012.78;;;13.11;44.19
15694;BME280;7947;48.834;9.132;2024-01-27T13:24:28;100003.69;;;12.84;43.96
15694;BME280;7947;48.834;9.132;2024-01-27T13:27:31;100007.25;;;12.56;44.52
15694;BME280;7947;48.834;9.132;2024-01-27T13:30:35;100007.88;;;12.46;45.56
15694;BME280;7947;48.834;9.132;2024-01-27T13:33:38;100003.44;;;12.40;46.30
15694;BME280;7947;48.834;9.132;2024-01-27T13:36:41;99995.72;;;12.44;45.25
15694;BME280;7947;48.834;9.132;2024-01-27T13:39:46;99992.56;;;12.63;43.58
15694;BME280;7947;48.834;9.132;2024-01-27T13:42:49;100002.44;;;12.75;43.54
15694;BME280;7947;48.834;9.132;2024-01-27T13:45:52;99996.53;;;12.44;42.64
15694;BME280;7947;48.834;9.132;2024-01-27T13:48:56;99990.31;;;12.44;42.87
15694;BME280;7947;48.834;9.132;2024-01-27T13:51:59;99993.16;;;12.37;42.46
15694;BME280;7947;48.834;9.132;2024-01-27T13:55:09;99997.72;;;12.37;43.02
15694;BME280;7947;48.834;9.132;2024-01-27T13:58:12;99988.78;;;12.48;43.29
15694;BME280;7947;48.834;9.132;2024-01-27T14:01:15;99998.66;;;12.42;42.35
15694;BME280;7947;48.834;9.132;2024-01-27T14:04:18;99997.84;;;12.58;41.60
15694;BME280;7947;48.834;9.132;2024-01-27T14:07:21;99979.81;;;12.42;43.54
15694;BME280;7947;48.834;9.132;2024-01-27T14:10:26;99964.94;;;11.84;44.81
15694;BME280;7947;48.834;9.132;2024-01-27T14:13:30;99961.19;;;11.61;45.96
15694;BME280;7947;48.834;9.132;2024-01-27T14:16:33;99975.59;;;11.55;46.48
15694;BME280;7947;48.834;9.132;2024-01-27T14:19:36;99966.13;;;11.64;47.23
15694;BME280;7947;48.834;9.132;2024-01-27T14:22:39;99962.88;;;11.28;46.78
15694;BME280;7947;48.834;9.132;2024-01-27T14:25:43;99960.53;;;11.08;47.91
15694;BME280;7947;48.834;9.132;2024-01-27T14:28:48;99970.75;;;10.76;49.28
15694;BME280;7947;48.834;9.132;2024-01-27T14:31:51;99969.91;;;10.53;50.39
15694;BME280;7947;48.834;9.132;2024-01-27T14:34:54;99964.56;;;10.23;51.86
15694;BME280;7947;48.834;9.132;2024-01-27T14:37:58;99963.25;;;10.14;51.85
15694;BME280;7947;48.834;9.132;2024-01-27T14:41:04;99957.34;;;10.24;53.80
15694;BME280;7947;48.834;9.132;2024-01-27T14:44:07;99953.28;;;10.33;52.60
15694;BME280;7947;48.834;9.132;2024-01-27T14:47:13;99959.91;;;10.30;52.83
15694;BME280;7947;48.834;9.132;2024-01-27T14:50:15;99954.72;;;9.99;53.62
15694;BME280;7947;48.834;9.132;2024-01-27T14:53:18;99955.81;;;9.80;51.37
15694;BME280;7947;48.834;9.132;2024-01-27T14:56:22;99956.72;;;9.38;52.45
15694;BME280;7947;48.834;9.132;2024-01-27T14:59:25;99951.19;;;9.15;53.83
15694;BME280;7947;48.834;9.132;2024-01-27T15:02:28;99947.75;;;9.07;54.75
15694;BME280;7947;48.834;9.132;2024-01-27T15:05:31;99954.78;;;9.02;53.26
15694;BME280;7947;48.834;9.132;2024-01-27T15:08:38;99944.88;;;8.84;53.51
15694;BME280;7947;48.834;9.132;2024-01-27T15:11:42;99957.25;;;8.79;52.71
15694;BME280;7947;48.834;9.132;2024-01-27T15:14:45;99956.00;;;8.81;53.23
15694;BME280;7947;48.834;9.132;2024-01-27T15:17:48;99952.47;;;8.87;53.78
15694;BME280;7947;48.834;9.132;2024-01-27T15:20:51;99949.66;;;9.00;55.33
15694;BME280;7947;48.834;9.132;2024-01-27T15:23:54;99954.13;;;9.06;55.27
15694;BME280;7947;48.834;9.132;2024-01-27T15:26:58;99950.03;;;9.04;55.33
15694;BME280;7947;48.834;9.132;2024-01-27T15:30:12;99954.31;;;9.12;56.00
15694;BME280;7947;48.834;9.132;2024-01-27T15:33:16;99944.84;;;9.09;56.34
15694;BME280;7947;48.834;9.132;2024-01-27T15:36:19;99952.66;;;9.10;56.93
15694;BME280;7947;48.834;9.132;2024-01-27T15:39:22;99949.38;;;9.08;57.09
15694;BME280;7947;48.834;9.132;2024-01-27T15:42:27;99952.28;;;9.07;57.90
15694;BME280;7947;48.834;9.132;2024-01-27T15:45:30;99948.47;;;8.96;57.90
15694;BME280;7947;48.834;9.132;2024-01-27T15:48:34;99948.16;;;8.86;58.58
15694;BME280;7947;48.834;9.132;2024-01-27T15:51:39;99948.63;;;8.77;58.49
15694;BME280;7947;48.834;9.132;2024-01-27T15:54:42;99945.91;;;8.59;58.89
15694;BME280;7947;48.834;9.132;2024-01-27T15:57:47;99942.88;;;8.49;59.59
15694;BME280;7947;48.834;9.132;2024-01-27T16:00:50;99939.88;;;8.39;59.98
15694;BME280;7947;48.834;9.132;2024-01-27T16:03:53;99952.91;;;8.22;59.90
15694;BME280;7947;48.834;9.132;2024-01-27T16:06:56;99945.81;;;8.03;60.56
15694;BME280;7947;48.834;9.132;2024-01-27T16:09:59;99956.16;;;7.93;60.73
15694;BME280;7947;48.834;9.132;2024-01-27T16:13:04;99951.66;;;7.80;60.58
15694;BME280;7947;48.834;9.132;2024-01-27T16:16:07;99961.41;;;7.68;61.16
15694;BME280;7947;48.834;9.132;2024-01-27T16:19:10;99961.84;;;7.52;61.44
15694;BME280;7947;48.834;9.132;2024-01-27T16:22:13;99963.94;;;7.30;61.44
15694;BME280;7947;48.834;9.132;2024-01-27T16:25:18;99959.25;;;7.13;62.79
15694;BME280;7947;48.834;9.132;2024-01-27T16:28:22;99955.97;;;7.11;62.70